sensor_id;sensor_type;location;lat;lon;timestamp;P1;durP1;ratioP1;P2;durP2;ratioP2
69511;SDS011;70777;52.034;4.644;2024-03-08T00:01:25;49.60;;;20.08;;
69511;SDS011;70777;52.034;4.644;2024-03-08T00:03:51;44.05;;;18.05;;
69511;SDS011;70777;52.034;4.644;2024-03-08T00:06:19;43.65;;;17.98;;
69511;SDS011;70777;52.034;4.644;2024-03-08T00:08:49;42.97;;;18.33;;
69511;SDS011;70777;52.034;4.644;2024-03-08T00:11:16;45.28;;;19.58;;
69511;SDS011;70777;52.034;4.644;2024-03-08T00:13:41;40.58;;;17.88;;
69511;SDS011;70777;52.034;4.644;2024-03-08T00:16:07;44.95;;;19.42;;
69511;SDS011;70777;52.034;4.644;2024-03-08T00:18:34;44.45;;;18.80;;
69511;SDS011;70777;52.034;4.644;2024-03-08T00:20:59;40.80;;;17.48;;
69511;SDS011;70777;52.034;4.644;2024-03-08T00:23:25;43.75;;;18.48;;
69511;SDS011;70777;52.034;4.644;2024-03-08T00:25:51;38.50;;;17.70;;
69511;SDS011;70777;52.034;4.644;2024-03-08T00:28:17;45.50;;;17.65;;
69511;SDS011;70777;52.034;4.644;2024-03-08T00:30:43;41.60;;;17.95;;
69511;SDS011;70777;52.034;4.644;2024-03-08T00:33:10;43.17;;;18.73;;
69511;SDS011;70777;52.034;4.644;2024-03-08T00:35:36;41.63;;;18.13;;
69511;SDS011;70777;52.034;4.644;2024-03-08T00:38:01;42.58;;;17.80;;
69511;SDS011;70777;52.034;4.644;2024-03-08T00:40:30;44.78;;;18.40;;
69511;SDS011;70777;52.034;4.644;2024-03-08T00:42:59;43.33;;;19.08;;
69511;SDS011;70777;52.034;4.644;2024-03-08T00:45:27;43.25;;;18.67;;
69511;SDS011;70777;52.034;4.644;2024-03-08T00:47:53;48.85;;;18.63;;
69511;SDS011;70777;52.034;4.644;2024-03-08T00:50:19;45.20;;;19.02;;
69511;SDS011;70777;52.034;4.644;2024-03-08T00:52:47;39.20;;;18.48;;
69511;SDS011;70777;52.034;4.644;2024-03-08T00:55:13;41.20;;;18.80;;
69511;SDS011;70777;52.034;4.644;2024-03-08T00:57:38;42.00;;;18.55;;
69511;SDS011;70777;52.034;4.644;2024-03-08T01:00:07;39.88;;;18.08;;
69511;SDS011;70777;52.034;4.644;2024-03-08T01:05:00;42.95;;;19.83;;
69511;SDS011;70777;52.034;4.644;2024-03-08T01:07:27;42.92;;;18.77;;
69511;SDS011;70777;52.034;4.644;2024-03-08T01:09:55;45.35;;;18.80;;
69511;SDS011;70777;52.034;4.644;2024-03-08T01:12:22;42.65;;;19.10;;
69511;SDS011;70777;52.034;4.644;2024-03-08T01:14:51;39.20;;;18.65;;
69511;SDS011;70777;52.034;4.644;2024-03-08T01:17:17;43.40;;;17.42;;
69511;SDS011;70777;52.034;4.644;2024-03-08T01:19:42;41.40;;;19.02;;
69511;SDS011;70777;52.034;4.644;2024-03-08T01:22:10;46.72;;;18.90;;
69511;SDS011;70777;52.034;4.644;2024-03-08T01:24:36;35.10;;;17.92;;
69511;SDS011;70777;52.034;4.644;2024-03-08T01:27:02;37.92;;;18.38;;
69511;SDS011;70777;52.034;4.644;2024-03-08T01:29:28;42.13;;;18.83;;
69511;SDS011;70777;52.034;4.644;2024-03-08T01:31:57;39.92;;;19.38;;
69511;SDS011;70777;52.034;4.644;2024-03-08T01:34:25;45.03;;;19.13;;
69511;SDS011;70777;52.034;4.644;2024-03-08T01:36:51;42.08;;;19.27;;
69511;SDS011;70777;52.034;4.644;2024-03-08T01:39:16;43.97;;;18.30;;
69511;SDS011;70777;52.034;4.644;2024-03-08T01:41:45;41.75;;;18.90;;
69511;SDS011;70777;52.034;4.644;2024-03-08T01:44:10;42.78;;;19.08;;
69511;SDS011;70777;52.034;4.644;2024-03-08T01:46:36;46.58;;;19.00;;
69511;SDS011;70777;52.034;4.644;2024-03-08T01:49:02;47.55;;;19.23;;
69511;SDS011;70777;52.034;4.644;2024-03-08T01:51:28;42.97;;;18.88;;
69511;SDS011;70777;52.034;4.644;2024-03-08T01:53:53;43.33;;;19.83;;
69511;SDS011;70777;52.034;4.644;2024-03-08T01:56:20;44.03;;;18.98;;
69511;SDS011;70777;52.034;4.644;2024-03-08T01:58:46;39.05;;;18.00;;
69511;SDS011;70777;52.034;4.644;2024-03-08T02:01:19;38.88;;;17.90;;
69511;SDS011;70777;52.034;4.644;2024-03-08T02:03:45;41.40;;;18.70;;
69511;SDS011;70777;52.034;4.644;2024-03-08T02:06:11;46.92;;;20.33;;
69511;SDS011;70777;52.034;4.644;2024-03-08T02:08:39;40.25;;;17.42;;
69511;SDS011;70777;52.034;4.644;2024-03-08T02:11:09;43.88;;;18.42;;
69511;SDS011;70777;52.034;4.644;2024-03-08T02:13:35;35.03;;;16.85;;
69511;SDS011;70777;52.034;4.644;2024-03-08T02:16:00;43.83;;;18.90;;
69511;SDS011;70777;52.034;4.644;2024-03-08T02:18:26;41.28;;;18.75;;
69511;SDS011;70777;52.034;4.644;2024-03-08T02:20:58;41.33;;;18.58;;
69511;SDS011;70777;52.034;4.644;2024-03-08T02:23:24;39.25;;;18.23;;
69511;SDS011;70777;52.034;4.644;2024-03-08T02:25:54;44.97;;;19.63;;
69511;SDS011;70777;52.034;4.644;2024-03-08T02:28:22;46.30;;;19.55;;
69511;SDS011;70777;52.034;4.644;2024-03-08T02:30:49;38.67;;;19.00;;
69511;SDS011;70777;52.034;4.644;2024-03-08T02:33:16;34.83;;;17.48;;
69511;SDS011;70777;52.034;4.644;2024-03-08T02:35:42;46.43;;;19.53;;
69511;SDS011;70777;52.034;4.644;2024-03-08T02:38:11;39.92;;;19.17;;
69511;SDS011;70777;52.034;4.644;2024-03-08T02:43:03;41.55;;;18.17;;
69511;SDS011;70777;52.034;4.644;2024-03-08T02:45:30;40.80;;;19.58;;
69511;SDS011;70777;52.034;4.644;2024-03-08T02:47:58;40.38;;;18.92;;
69511;SDS011;70777;52.034;4.644;2024-03-08T02:50:24;38.63;;;17.88;;
69511;SDS011;70777;52.034;4.644;2024-03-08T02:52:50;41.72;;;18.55;;
69511;SDS011;70777;52.034;4.644;2024-03-08T02:55:16;45.38;;;20.27;;
69511;SDS011;70777;52.034;4.644;2024-03-08T02:57:42;46.08;;;19.90;;
69511;SDS011;70777;52.034;4.644;2024-03-08T03:00:12;45.70;;;18.48;;
69511;SDS011;70777;52.034;4.644;2024-03-08T03:02:38;46.85;;;20.58;;
69511;SDS011;70777;52.034;4.644;2024-03-08T03:05:04;47.90;;;20.83;;
69511;SDS011;70777;52.034;4.644;2024-03-08T03:07:35;44.45;;;19.52;;
69511;SDS011;70777;52.034;4.644;2024-03-08T03:10:01;43.85;;;20.00;;
69511;SDS011;70777;52.034;4.644;2024-03-08T03:12:30;46.72;;;21.25;;
69511;SDS011;70777;52.034;4.644;2024-03-08T03:14:56;41.90;;;19.97;;
69511;SDS011;70777;52.034;4.644;2024-03-08T03:17:25;39.42;;;18.65;;
69511;SDS011;70777;52.034;4.644;2024-03-08T03:19:54;44.47;;;19.58;;
69511;SDS011;70777;52.034;4.644;2024-03-08T03:22:22;44.38;;;19.65;;
69511;SDS011;70777;52.034;4.644;2024-03-08T03:24:48;44.85;;;19.48;;
69511;SDS011;70777;52.034;4.644;2024-03-08T03:27:16;44.20;;;20.23;;
69511;SDS011;70777;52.034;4.644;2024-03-08T03:29:42;43.10;;;18.85;;
69511;SDS011;70777;52.034;4.644;2024-03-08T03:32:11;42.45;;;19.42;;
69511;SDS011;70777;52.034;4.644;2024-03-08T03:34:37;39.00;;;19.13;;
69511;SDS011;70777;52.034;4.644;2024-03-08T03:37:03;43.22;;;20.25;;
69511;SDS011;70777;52.034;4.644;2024-03-08T03:39:33;43.08;;;20.58;;
69511;SDS011;70777;52.034;4.644;2024-03-08T03:41:59;42.28;;;19.80;;
69511;SDS011;70777;52.034;4.644;2024-03-08T03:44:31;44.65;;;20.45;;
69511;SDS011;70777;52.034;4.644;2024-03-08T03:46:57;45.75;;;19.73;;
69511;SDS011;70777;52.034;4.644;2024-03-08T03:49:23;42.60;;;19.48;;
69511;SDS011;70777;52.034;4.644;2024-03-08T03:51:48;47.97;;;20.50;;
69511;SDS011;70777;52.034;4.644;2024-03-08T03:54:14;39.33;;;19.58;;
69511;SDS011;70777;52.034;4.644;2024-03-08T03:56:40;43.65;;;20.08;;
69511;SDS011;70777;52.034;4.644;2024-03-08T03:59:07;43.90;;;18.90;;
69511;SDS011;70777;52.034;4.644;2024-03-08T04:01:33;44.50;;;18.88;;
69511;SDS011;70777;52.034;4.644;2024-03-08T04:03:59;45.38;;;20.10;;
69511;SDS011;70777;52.034;4.644;2024-03-08T04:06:24;44.05;;;19.88;;
69511;SDS011;70777;52.034;4.644;2024-03-08T04:08:50;39.60;;;19.25;;
69511;SDS011;70777;52.034;4.644;2024-03-08T04:11:16;46.67;;;20.67;;
69511;SDS011;70777;52.034;4.644;2024-03-08T04:13:42;43.47;;;19.30;;
69511;SDS011;70777;52.034;4.644;2024-03-08T04:16:08;44.65;;;21.30;;
69511;SDS011;70777;52.034;4.644;2024-03-08T04:18:36;41.53;;;19.38;;
69511;SDS011;70777;52.034;4.644;2024-03-08T04:21:03;38.70;;;19.50;;
69511;SDS011;70777;52.034;4.644;2024-03-08T04:23:35;45.97;;;21.90;;
69511;SDS011;70777;52.034;4.644;2024-03-08T04:26:02;38.95;;;19.60;;
69511;SDS011;70777;52.034;4.644;2024-03-08T04:28:32;45.10;;;21.13;;
69511;SDS011;70777;52.034;4.644;2024-03-08T04:30:58;47.70;;;20.73;;
69511;SDS011;70777;52.034;4.644;2024-03-08T04:33:31;43.75;;;20.55;;
69511;SDS011;70777;52.034;4.644;2024-03-08T04:35:57;39.50;;;19.52;;
69511;SDS011;70777;52.034;4.644;2024-03-08T04:38:23;43.40;;;21.20;;
69511;SDS011;70777;52.034;4.644;2024-03-08T04:43:16;43.30;;;20.95;;
69511;SDS011;70777;52.034;4.644;2024-03-08T04:48:09;40.97;;;20.25;;
69511;SDS011;70777;52.034;4.644;2024-03-08T04:50:37;41.83;;;19.98;;
69511;SDS011;70777;52.034;4.644;2024-03-08T04:53:05;44.80;;;20.70;;
69511;SDS011;70777;52.034;4.644;2024-03-08T04:55:33;43.53;;;19.77;;
69511;SDS011;70777;52.034;4.644;2024-03-08T04:57:59;47.88;;;21.95;;
69511;SDS011;70777;52.034;4.644;2024-03-08T05:00:25;44.00;;;20.40;;
69511;SDS011;70777;52.034;4.644;2024-03-08T05:02:50;45.67;;;20.23;;
69511;SDS011;70777;52.034;4.644;2024-03-08T05:05:19;50.35;;;21.10;;
69511;SDS011;70777;52.034;4.644;2024-03-08T05:07:44;41.63;;;21.38;;
69511;SDS011;70777;52.034;4.644;2024-03-08T05:10:20;39.13;;;20.98;;
69511;SDS011;70777;52.034;4.644;2024-03-08T05:12:51;44.58;;;20.70;;
69511;SDS011;70777;52.034;4.644;2024-03-08T05:15:17;48.80;;;21.05;;
69511;SDS011;70777;52.034;4.644;2024-03-08T05:17:42;45.35;;;20.38;;
69511;SDS011;70777;52.034;4.644;2024-03-08T05:20:09;35.90;;;18.55;;
69511;SDS011;70777;52.034;4.644;2024-03-08T05:22:38;49.50;;;21.95;;
69511;SDS011;70777;52.034;4.644;2024-03-08T05:25:11;40.22;;;19.67;;
69511;SDS011;70777;52.034;4.644;2024-03-08T05:27:37;40.65;;;21.08;;
69511;SDS011;70777;52.034;4.644;2024-03-08T05:30:03;41.97;;;19.25;;
69511;SDS011;70777;52.034;4.644;2024-03-08T05:32:39;44.70;;;21.00;;
69511;SDS011;70777;52.034;4.644;2024-03-08T05:35:08;45.63;;;21.40;;
69511;SDS011;70777;52.034;4.644;2024-03-08T05:37:35;47.22;;;21.00;;
69511;SDS011;70777;52.034;4.644;2024-03-08T05:40:00;49.65;;;22.25;;
69511;SDS011;70777;52.034;4.644;2024-03-08T05:42:29;47.70;;;21.45;;
69511;SDS011;70777;52.034;4.644;2024-03-08T05:44:55;44.38;;;20.95;;
69511;SDS011;70777;52.034;4.644;2024-03-08T05:47:29;41.60;;;20.42;;
69511;SDS011;70777;52.034;4.644;2024-03-08T05:50:00;51.22;;;21.33;;
69511;SDS011;70777;52.034;4.644;2024-03-08T05:52:29;44.90;;;20.90;;
69511;SDS011;70777;52.034;4.644;2024-03-08T05:54:55;41.85;;;20.77;;
69511;SDS011;70777;52.034;4.644;2024-03-08T05:57:21;49.25;;;21.70;;
69511;SDS011;70777;52.034;4.644;2024-03-08T05:59:49;45.83;;;21.33;;
69511;SDS011;70777;52.034;4.644;2024-03-08T06:02:14;42.53;;;20.42;;
69511;SDS011;70777;52.034;4.644;2024-03-08T06:04:44;44.95;;;20.20;;
69511;SDS011;70777;52.034;4.644;2024-03-08T06:07:15;46.70;;;20.83;;
69511;SDS011;70777;52.034;4.644;2024-03-08T06:09:42;46.47;;;22.15;;
69511;SDS011;70777;52.034;4.644;2024-03-08T06:12:11;42.03;;;20.17;;
69511;SDS011;70777;52.034;4.644;2024-03-08T06:14:36;44.10;;;21.10;;
69511;SDS011;70777;52.034;4.644;2024-03-08T06:17:02;44.13;;;21.10;;
69511;SDS011;70777;52.034;4.644;2024-03-08T06:19:31;44.47;;;20.50;;
69511;SDS011;70777;52.034;4.644;2024-03-08T06:21:56;40.42;;;19.80;;
69511;SDS011;70777;52.034;4.644;2024-03-08T06:24:22;45.17;;;21.13;;
69511;SDS011;70777;52.034;4.644;2024-03-08T06:26:51;49.80;;;21.48;;
69511;SDS011;70777;52.034;4.644;2024-03-08T06:29:18;40.13;;;20.40;;
69511;SDS011;70777;52.034;4.644;2024-03-08T06:31:44;47.10;;;20.98;;
69511;SDS011;70777;52.034;4.644;2024-03-08T06:34:16;40.13;;;19.60;;
69511;SDS011;70777;52.034;4.644;2024-03-08T06:36:46;43.50;;;21.05;;
69511;SDS011;70777;52.034;4.644;2024-03-08T06:39:14;41.78;;;20.48;;
69511;SDS011;70777;52.034;4.644;2024-03-08T06:41:42;42.08;;;21.83;;
69511;SDS011;70777;52.034;4.644;2024-03-08T06:44:09;41.00;;;20.92;;
69511;SDS011;70777;52.034;4.644;2024-03-08T06:46:35;44.92;;;21.65;;
69511;SDS011;70777;52.034;4.644;2024-03-08T06:49:00;43.50;;;20.27;;
69511;SDS011;70777;52.034;4.644;2024-03-08T06:51:29;45.90;;;22.50;;
69511;SDS011;70777;52.034;4.644;2024-03-08T06:56:21;41.30;;;18.85;;
69511;SDS011;70777;52.034;4.644;2024-03-08T06:58:47;42.97;;;21.80;;
69511;SDS011;70777;52.034;4.644;2024-03-08T07:01:13;39.78;;;20.00;;
69511;SDS011;70777;52.034;4.644;2024-03-08T07:03:41;39.83;;;21.10;;
69511;SDS011;70777;52.034;4.644;2024-03-08T07:06:09;43.58;;;19.60;;
69511;SDS011;70777;52.034;4.644;2024-03-08T07:08:35;44.63;;;21.08;;
69511;SDS011;70777;52.034;4.644;2024-03-08T07:11:01;45.78;;;21.02;;
69511;SDS011;70777;52.034;4.644;2024-03-08T07:13:28;44.67;;;21.25;;
69511;SDS011;70777;52.034;4.644;2024-03-08T07:15:57;42.65;;;21.38;;
69511;SDS011;70777;52.034;4.644;2024-03-08T07:18:26;47.65;;;21.10;;
69511;SDS011;70777;52.034;4.644;2024-03-08T07:20:55;43.13;;;20.67;;
69511;SDS011;70777;52.034;4.644;2024-03-08T07:23:20;40.30;;;20.08;;
69511;SDS011;70777;52.034;4.644;2024-03-08T07:26:07;38.20;;;20.17;;
69511;SDS011;70777;52.034;4.644;2024-03-08T07:28:33;42.72;;;20.52;;
69511;SDS011;70777;52.034;4.644;2024-03-08T07:30:59;36.50;;;18.80;;
69511;SDS011;70777;52.034;4.644;2024-03-08T07:33:48;36.83;;;18.27;;
69511;SDS011;70777;52.034;4.644;2024-03-08T07:36:16;37.15;;;19.23;;
69511;SDS011;70777;52.034;4.644;2024-03-08T07:38:42;41.20;;;20.88;;
69511;SDS011;70777;52.034;4.644;2024-03-08T07:41:13;41.40;;;20.90;;
69511;SDS011;70777;52.034;4.644;2024-03-08T07:43:43;43.92;;;20.55;;
69511;SDS011;70777;52.034;4.644;2024-03-08T07:46:09;40.90;;;19.67;;
69511;SDS011;70777;52.034;4.644;2024-03-08T07:48:35;42.83;;;20.15;;
69511;SDS011;70777;52.034;4.644;2024-03-08T07:51:01;38.10;;;19.00;;
69511;SDS011;70777;52.034;4.644;2024-03-08T07:53:30;39.00;;;19.23;;
69511;SDS011;70777;52.034;4.644;2024-03-08T07:55:59;35.83;;;18.80;;
69511;SDS011;70777;52.034;4.644;2024-03-08T07:58:25;34.17;;;17.88;;
69511;SDS011;70777;52.034;4.644;2024-03-08T08:00:50;31.40;;;17.17;;
69511;SDS011;70777;52.034;4.644;2024-03-08T08:03:19;33.33;;;18.60;;
69511;SDS011;70777;52.034;4.644;2024-03-08T08:05:46;30.17;;;16.85;;
69511;SDS011;70777;52.034;4.644;2024-03-08T08:08:14;31.00;;;16.48;;
69511;SDS011;70777;52.034;4.644;2024-03-08T08:10:40;30.20;;;16.75;;
69511;SDS011;70777;52.034;4.644;2024-03-08T08:13:05;31.95;;;17.45;;
69511;SDS011;70777;52.034;4.644;2024-03-08T08:15:31;32.05;;;17.83;;
69511;SDS011;70777;52.034;4.644;2024-03-08T08:17:59;30.33;;;17.38;;
69511;SDS011;70777;52.034;4.644;2024-03-08T08:20:27;28.77;;;16.77;;
69511;SDS011;70777;52.034;4.644;2024-03-08T08:22:56;29.98;;;16.60;;
69511;SDS011;70777;52.034;4.644;2024-03-08T08:25:24;25.20;;;14.98;;
69511;SDS011;70777;52.034;4.644;2024-03-08T08:27:49;27.75;;;16.98;;
69511;SDS011;70777;52.034;4.644;2024-03-08T08:30:15;27.98;;;16.08;;
69511;SDS011;70777;52.034;4.644;2024-03-08T08:32:41;31.42;;;16.58;;
69511;SDS011;70777;52.034;4.644;2024-03-08T08:35:09;24.33;;;15.63;;
69511;SDS011;70777;52.034;4.644;2024-03-08T08:37:35;28.15;;;16.85;;
69511;SDS011;70777;52.034;4.644;2024-03-08T08:40:03;27.55;;;16.80;;
69511;SDS011;70777;52.034;4.644;2024-03-08T08:42:34;29.08;;;15.80;;
69511;SDS011;70777;52.034;4.644;2024-03-08T08:44:59;26.52;;;16.27;;
69511;SDS011;70777;52.034;4.644;2024-03-08T08:47:26;25.85;;;15.93;;
69511;SDS011;70777;52.034;4.644;2024-03-08T08:49:52;27.88;;;16.98;;
69511;SDS011;70777;52.034;4.644;2024-03-08T08:52:19;26.53;;;15.53;;
69511;SDS011;70777;52.034;4.644;2024-03-08T08:54:47;24.42;;;15.32;;
69511;SDS011;70777;52.034;4.644;2024-03-08T08:57:17;25.90;;;15.85;;
69511;SDS011;70777;52.034;4.644;2024-03-08T08:59:44;25.08;;;16.15;;
69511;SDS011;70777;52.034;4.644;2024-03-08T09:02:15;24.67;;;15.77;;
69511;SDS011;70777;52.034;4.644;2024-03-08T09:04:51;23.05;;;15.48;;
69511;SDS011;70777;52.034;4.644;2024-03-08T09:07:24;24.50;;;15.75;;
69511;SDS011;70777;52.034;4.644;2024-03-08T09:09:50;25.52;;;15.82;;
69511;SDS011;70777;52.034;4.644;2024-03-08T09:12:18;25.20;;;16.02;;
69511;SDS011;70777;52.034;4.644;2024-03-08T09:14:44;23.63;;;15.35;;
69511;SDS011;70777;52.034;4.644;2024-03-08T09:17:10;24.15;;;14.82;;
69511;SDS011;70777;52.034;4.644;2024-03-08T09:19:35;23.85;;;16.45;;
69511;SDS011;70777;52.034;4.644;2024-03-08T09:22:04;25.30;;;15.50;;
69511;SDS011;70777;52.034;4.644;2024-03-08T09:24:33;26.38;;;15.35;;
69511;SDS011;70777;52.034;4.644;2024-03-08T09:27:02;25.75;;;16.13;;
69511;SDS011;70777;52.034;4.644;2024-03-08T09:29:28;25.98;;;15.82;;
69511;SDS011;70777;52.034;4.644;2024-03-08T09:31:56;26.05;;;15.68;;
69511;SDS011;70777;52.034;4.644;2024-03-08T09:34:22;24.65;;;15.68;;
69511;SDS011;70777;52.034;4.644;2024-03-08T09:36:51;25.73;;;15.07;;
69511;SDS011;70777;52.034;4.644;2024-03-08T09:39:19;26.65;;;15.50;;
69511;SDS011;70777;52.034;4.644;2024-03-08T09:41:46;24.17;;;15.35;;
69511;SDS011;70777;52.034;4.644;2024-03-08T09:44:21;24.65;;;15.27;;
69511;SDS011;70777;52.034;4.644;2024-03-08T09:46:50;28.83;;;15.18;;
69511;SDS011;70777;52.034;4.644;2024-03-08T09:49:18;23.85;;;15.02;;
69511;SDS011;70777;52.034;4.644;2024-03-08T09:51:46;24.98;;;16.15;;
69511;SDS011;70777;52.034;4.644;2024-03-08T09:54:12;22.55;;;14.57;;
69511;SDS011;70777;52.034;4.644;2024-03-08T09:56:41;23.25;;;14.95;;
69511;SDS011;70777;52.034;4.644;2024-03-08T09:59:09;25.20;;;15.77;;
69511;SDS011;70777;52.034;4.644;2024-03-08T10:01:52;24.58;;;15.13;;
69511;SDS011;70777;52.034;4.644;2024-03-08T10:04:24;23.27;;;14.50;;
69511;SDS011;70777;52.034;4.644;2024-03-08T10:06:50;22.95;;;14.10;;
69511;SDS011;70777;52.034;4.644;2024-03-08T10:09:19;22.02;;;15.27;;
69511;SDS011;70777;52.034;4.644;2024-03-08T10:11:46;23.15;;;14.82;;
69511;SDS011;70777;52.034;4.644;2024-03-08T10:14:11;22.58;;;15.05;;
69511;SDS011;70777;52.034;4.644;2024-03-08T10:16:40;24.83;;;14.87;;
69511;SDS011;70777;52.034;4.644;2024-03-08T10:19:09;24.83;;;15.18;;
69511;SDS011;70777;52.034;4.644;2024-03-08T10:21:47;24.85;;;14.32;;
69511;SDS011;70777;52.034;4.644;2024-03-08T10:24:18;23.90;;;15.23;;
69511;SDS011;70777;52.034;4.644;2024-03-08T10:26:44;22.92;;;14.63;;
69511;SDS011;70777;52.034;4.644;2024-03-08T10:29:11;25.70;;;15.35;;
69511;SDS011;70777;52.034;4.644;2024-03-08T10:31:43;23.23;;;15.18;;
69511;SDS011;70777;52.034;4.644;2024-03-08T10:34:09;25.00;;;15.48;;
69511;SDS011;70777;52.034;4.644;2024-03-08T10:36:35;24.58;;;14.43;;
69511;SDS011;70777;52.034;4.644;2024-03-08T10:39:03;23.02;;;14.80;;
69511;SDS011;70777;52.034;4.644;2024-03-08T10:41:35;22.33;;;14.98;;
69511;SDS011;70777;52.034;4.644;2024-03-08T10:46:47;23.02;;;15.60;;
69511;SDS011;70777;52.034;4.644;2024-03-08T10:49:38;20.83;;;13.50;;
69511;SDS011;70777;52.034;4.644;2024-03-08T10:52:06;21.58;;;14.40;;
69511;SDS011;70777;52.034;4.644;2024-03-08T10:54:34;21.00;;;13.77;;
69511;SDS011;70777;52.034;4.644;2024-03-08T10:57:08;22.60;;;13.82;;
69511;SDS011;70777;52.034;4.644;2024-03-08T10:59:35;23.83;;;15.25;;
69511;SDS011;70777;52.034;4.644;2024-03-08T11:02:04;25.38;;;13.85;;
69511;SDS011;70777;52.034;4.644;2024-03-08T11:04:33;24.92;;;14.00;;
69511;SDS011;70777;52.034;4.644;2024-03-08T11:07:02;23.08;;;14.32;;
69511;SDS011;70777;52.034;4.644;2024-03-08T11:09:37;20.03;;;13.10;;
69511;SDS011;70777;52.034;4.644;2024-03-08T11:15:00;21.00;;;14.23;;
69511;SDS011;70777;52.034;4.644;2024-03-08T11:22:40;21.83;;;13.82;;
69511;SDS011;70777;52.034;4.644;2024-03-08T11:25:34;23.00;;;13.73;;
69511;SDS011;70777;52.034;4.644;2024-03-08T11:28:15;22.20;;;13.40;;
69511;SDS011;70777;52.034;4.644;2024-03-08T11:30:43;22.38;;;13.75;;
69511;SDS011;70777;52.034;4.644;2024-03-08T11:33:27;20.67;;;13.02;;
69511;SDS011;70777;52.034;4.644;2024-03-08T11:38:42;22.38;;;13.10;;
69511;SDS011;70777;52.034;4.644;2024-03-08T11:41:13;23.67;;;13.45;;
69511;SDS011;70777;52.034;4.644;2024-03-08T11:46:42;20.98;;;13.32;;
69511;SDS011;70777;52.034;4.644;2024-03-08T11:49:19;21.50;;;12.65;;
69511;SDS011;70777;52.034;4.644;2024-03-08T11:58:36;19.35;;;11.90;;
69511;SDS011;70777;52.034;4.644;2024-03-08T12:01:13;19.33;;;11.75;;
69511;SDS011;70777;52.034;4.644;2024-03-08T12:03:58;19.98;;;11.93;;
69511;SDS011;70777;52.034;4.644;2024-03-08T12:06:41;20.98;;;12.07;;
69511;SDS011;70777;52.034;4.644;2024-03-08T12:09:11;19.73;;;11.65;;
69511;SDS011;70777;52.034;4.644;2024-03-08T12:11:38;21.70;;;13.57;;
69511;SDS011;70777;52.034;4.644;2024-03-08T12:14:04;20.48;;;12.20;;
69511;SDS011;70777;52.034;4.644;2024-03-08T12:18:57;21.93;;;12.93;;
69511;SDS011;70777;52.034;4.644;2024-03-08T12:21:32;22.45;;;11.45;;
69511;SDS011;70777;52.034;4.644;2024-03-08T12:24:07;21.25;;;12.80;;
69511;SDS011;70777;52.034;4.644;2024-03-08T12:26:34;21.80;;;12.55;;
69511;SDS011;70777;52.034;4.644;2024-03-08T12:31:57;23.17;;;13.45;;
69511;SDS011;70777;52.034;4.644;2024-03-08T12:34:26;19.77;;;12.45;;
69511;SDS011;70777;52.034;4.644;2024-03-08T12:36:53;22.15;;;12.40;;
69511;SDS011;70777;52.034;4.644;2024-03-08T12:39:19;21.30;;;12.82;;
69511;SDS011;70777;52.034;4.644;2024-03-08T12:41:51;21.13;;;12.50;;
69511;SDS011;70777;52.034;4.644;2024-03-08T12:44:24;22.50;;;12.70;;
69511;SDS011;70777;52.034;4.644;2024-03-08T12:46:50;21.50;;;12.43;;
69511;SDS011;70777;52.034;4.644;2024-03-08T12:49:16;30.05;;;12.70;;
69511;SDS011;70777;52.034;4.644;2024-03-08T12:51:47;28.48;;;13.52;;
69511;SDS011;70777;52.034;4.644;2024-03-08T12:54:13;23.52;;;13.20;;
69511;SDS011;70777;52.034;4.644;2024-03-08T12:56:39;21.52;;;12.68;;
69511;SDS011;70777;52.034;4.644;2024-03-08T12:59:05;22.75;;;13.02;;
69511;SDS011;70777;52.034;4.644;2024-03-08T13:01:32;25.10;;;14.15;;
69511;SDS011;70777;52.034;4.644;2024-03-08T13:03:58;22.92;;;13.73;;
69511;SDS011;70777;52.034;4.644;2024-03-08T13:06:25;21.40;;;12.98;;
69511;SDS011;70777;52.034;4.644;2024-03-08T13:08:51;23.25;;;13.82;;
69511;SDS011;70777;52.034;4.644;2024-03-08T13:11:20;20.90;;;13.30;;
69511;SDS011;70777;52.034;4.644;2024-03-08T13:13:46;21.88;;;13.55;;
69511;SDS011;70777;52.034;4.644;2024-03-08T13:16:11;20.80;;;12.20;;
69511;SDS011;70777;52.034;4.644;2024-03-08T13:18:40;21.10;;;13.23;;
69511;SDS011;70777;52.034;4.644;2024-03-08T13:21:09;23.83;;;13.38;;
69511;SDS011;70777;52.034;4.644;2024-03-08T13:23:39;20.73;;;12.37;;
69511;SDS011;70777;52.034;4.644;2024-03-08T13:26:10;21.48;;;13.35;;
69511;SDS011;70777;52.034;4.644;2024-03-08T13:28:45;19.67;;;13.10;;
69511;SDS011;70777;52.034;4.644;2024-03-08T13:31:11;24.00;;;13.70;;
69511;SDS011;70777;52.034;4.644;2024-03-08T13:33:37;21.90;;;12.30;;
69511;SDS011;70777;52.034;4.644;2024-03-08T13:38:32;21.45;;;13.65;;
69511;SDS011;70777;52.034;4.644;2024-03-08T13:40:58;20.70;;;13.18;;
69511;SDS011;70777;52.034;4.644;2024-03-08T13:43:24;23.60;;;13.82;;
69511;SDS011;70777;52.034;4.644;2024-03-08T13:45:50;20.02;;;13.10;;
69511;SDS011;70777;52.034;4.644;2024-03-08T13:48:17;21.70;;;13.35;;
69511;SDS011;70777;52.034;4.644;2024-03-08T13:50:43;20.95;;;12.93;;
69511;SDS011;70777;52.034;4.644;2024-03-08T13:53:08;21.67;;;13.25;;
69511;SDS011;70777;52.034;4.644;2024-03-08T13:55:37;19.42;;;12.80;;
69511;SDS011;70777;52.034;4.644;2024-03-08T13:58:03;18.48;;;12.38;;
69511;SDS011;70777;52.034;4.644;2024-03-08T14:00:29;21.80;;;12.13;;
69511;SDS011;70777;52.034;4.644;2024-03-08T14:02:58;21.77;;;13.43;;
69511;SDS011;70777;52.034;4.644;2024-03-08T14:05:24;22.07;;;13.30;;
69511;SDS011;70777;52.034;4.644;2024-03-08T14:07:50;24.55;;;13.38;;
69511;SDS011;70777;52.034;4.644;2024-03-08T14:10:16;22.90;;;13.65;;
69511;SDS011;70777;52.034;4.644;2024-03-08T14:12:45;21.55;;;13.23;;
69511;SDS011;70777;52.034;4.644;2024-03-08T14:15:15;25.50;;;15.07;;
69511;SDS011;70777;52.034;4.644;2024-03-08T14:17:41;21.85;;;14.10;;
69511;SDS011;70777;52.034;4.644;2024-03-08T14:20:07;22.85;;;13.40;;
69511;SDS011;70777;52.034;4.644;2024-03-08T14:22:34;19.38;;;12.70;;
69511;SDS011;70777;52.034;4.644;2024-03-08T14:25:00;21.23;;;13.48;;
69511;SDS011;70777;52.034;4.644;2024-03-08T14:27:25;20.83;;;13.30;;
69511;SDS011;70777;52.034;4.644;2024-03-08T14:29:52;21.85;;;13.65;;
69511;SDS011;70777;52.034;4.644;2024-03-08T14:32:19;20.77;;;13.23;;
69511;SDS011;70777;52.034;4.644;2024-03-08T14:34:48;20.77;;;12.50;;
69511;SDS011;70777;52.034;4.644;2024-03-08T14:37:14;19.73;;;13.00;;
69511;SDS011;70777;52.034;4.644;2024-03-08T14:39:43;24.20;;;13.40;;
69511;SDS011;70777;52.034;4.644;2024-03-08T14:42:09;21.88;;;13.75;;
69511;SDS011;70777;52.034;4.644;2024-03-08T14:44:41;22.83;;;14.00;;
69511;SDS011;70777;52.034;4.644;2024-03-08T14:47:13;23.05;;;13.73;;
69511;SDS011;70777;52.034;4.644;2024-03-08T14:49:41;28.02;;;15.65;;
69511;SDS011;70777;52.034;4.644;2024-03-08T14:52:07;22.90;;;13.95;;
69511;SDS011;70777;52.034;4.644;2024-03-08T14:54:52;28.98;;;14.90;;
69511;SDS011;70777;52.034;4.644;2024-03-08T14:57:19;24.05;;;13.52;;
69511;SDS011;70777;52.034;4.644;2024-03-08T14:59:45;23.55;;;13.05;;
69511;SDS011;70777;52.034;4.644;2024-03-08T15:02:10;25.85;;;15.13;;
69511;SDS011;70777;52.034;4.644;2024-03-08T15:04:36;23.02;;;13.07;;
69511;SDS011;70777;52.034;4.644;2024-03-08T15:07:02;26.13;;;13.82;;
69511;SDS011;70777;52.034;4.644;2024-03-08T15:09:30;24.40;;;13.52;;